Latest Weather Observations for Laverton

IDV60901

Issued at 4:51 pm EDT Sunday 22 January 2017 (issued every 10 minutes, with the page automatically refreshed every 10 minutes)

About weather observations | Map of Melbourne area stations | Latest observations for Melbourne area | Other Formats
Station Details ID: 087031 Name: LAVERTON RAAF Lat: -37.86 Lon: 144.76 Height: 20.1 m
Data from the previous 72 hours. | See also: Recent months at Laverton
Date/Time
EDT
Temp
°C
App
Temp
°C
Dew
Point
°C
Rel
Hum
%
Delta-T
°C
Wind Press
QNH
hPa
Press
MSL
hPa
Rain since
9am
mm
Dir  Spd
km/h
Gust
km/h
Spd
kts
Gust
kts
22/04:30pm 26.6 24.4 14.4 47 7.3 SSE 19 24 10 13 1011.7 1011.6 0.0
22/04:00pm 26.6 24.9 14.7 48 7.2 SSE 17 22 9 12 1012.1 1012.0 0.0
22/03:30pm 27.4 25.6 13.4 42 8.3 SE 15 20 8 11 1012.3 1012.2 0.0
22/03:00pm 26.6 24.3 11.9 40 8.4 SE 15 24 8 13 1012.6 1012.5 0.0
22/02:30pm 26.2 24.5 12.6 43 7.9 ESE 13 22 7 12 1012.9 1012.8 0.0
22/02:00pm 25.1 22.9 12.0 44 7.5 ESE 15 22 8 12 1013.3 1013.2 0.0
22/01:30pm 24.6 22.4 12.2 46 7.1 SE 15 22 8 12 1013.7 1013.6 0.0
22/01:00pm 23.7 21.9 12.0 48 6.6 SE 13 19 7 10 1014.0 1013.9 0.0
22/12:30pm 23.1 21.4 12.4 51 6.1 ESE 13 17 7 9 1014.2 1014.1 0.0
22/12:00pm 22.8 21.5 12.4 52 5.9 SE 11 39 6 21 1014.6 1014.5 0.0
22/11:30am 21.7 19.9 10.8 50 6.0 SE 11 15 6 8 1014.9 1014.8 0.0
22/11:00am 21.0 18.3 8.9 46 6.4 ESE 13 20 7 11 1015.2 1015.1 0.0
22/10:30am 19.6 17.5 11.1 58 4.6 SE 13 17 7 9 1015.6 1015.5 0.0
22/10:00am 19.1 17.4 11.2 60 4.3 SE 11 17 6 9 1016.1 1016.0 0.0
22/09:30am 18.7 17.1 11.5 63 3.9 ESE 11 17 6 9 1016.4 1016.3 0.0
22/09:00am 18.1 16.9 12.8 71 3.0 ESE 11 17 6 9 1016.6 1016.5 0.0
22/08:30am 17.1 16.8 12.8 76 2.4 WSW 6 9 3 5 1016.9 1016.8 0.0
22/08:00am 15.0 14.8 12.9 87 1.2 WNW 6 7 3 4 1016.7 1016.6 0.0
22/07:30am 13.3 12.8 12.5 95 0.4 NW 7 11 4 6 1016.6 1016.5 0.0
22/07:00am 11.7 10.4 11.4 98 0.2 WNW 9 9 5 5 1016.3 1016.2 0.0
22/06:30am 11.4 9.7 11.1 98 0.2 NW 11 11 6 6 1016.2 1016.1 0.0
22/06:00am 11.3 9.5 11.0 98 0.2 NW 11 13 6 7 1016.4 1016.3 0.0
22/05:30am 11.5 9.8 11.2 98 0.2 NW 11 13 6 7 1016.0 1015.9 0.0
22/05:00am 11.8 10.5 11.3 97 0.3 NW 9 11 5 6 1015.8 1015.7 0.0
22/04:30am 12.4 11.3 11.8 96 0.3 NNW 9 11 5 6 1015.6 1015.5 0.0
22/04:00am 12.2 10.9 11.4 95 0.4 NNW 9 9 5 5 1015.5 1015.4 0.0
22/03:30am 12.5 11.3 11.7 95 0.4 NNW 9 13 5 7 1015.6 1015.5 0.0
22/03:00am 12.8 11.6 11.7 93 0.6 NW 9 11 5 6 1015.8 1015.7 0.0
22/02:30am 13.4 12.2 11.6 89 1.0 NW 9 9 5 5 1015.8 1015.7 0.0
22/02:00am 15.4 15.0 12.3 82 1.7 S 6 7 3 4 1016.1 1016.0 0.0
22/01:30am 15.6 15.2 12.5 82 1.7 SSE 6 7 3 4 1016.2 1016.1 0.0
22/01:00am 15.9 15.5 12.5 80 1.9 SE 6 9 3 5 1016.4 1016.3 0.0
22/12:30am 16.2 15.3 12.6 79 2.0 SSE 9 13 5 7 1016.6 1016.5 0.0
22/12:00am 16.4 15.4 12.4 77 2.2 SE 9 13 5 7 1016.6 1016.5 0.0
 
Date/Time
EDT
Temp
°C
App
Temp
°C
Dew
Point
°C
Rel
Hum
%
Delta-T
°C
Wind Press
QNH
hPa
Press
MSL
hPa
Rain since
9am
mm
Dir  Spd
km/h
Gust
km/h
Spd
kts
Gust
kts
21/11:30pm 16.8 15.1 12.3 75 2.5 SSE 13 17 7 9 1016.7 1016.6 0.0
21/11:00pm 17.1 15.8 12.6 75 2.5 SE 11 17 6 9 1016.7 1016.6 0.0
21/10:30pm 17.4 16.1 12.5 73 2.7 SSE 11 17 6 9 1016.8 1016.7 0.0
21/10:00pm 17.6 15.7 12.9 74 2.6 SSE 15 22 8 12 1016.6 1016.5 0.0
21/09:30pm 17.5 15.7 12.0 70 3.0 S 13 20 7 11 1016.5 1016.4 0.0
21/09:00pm 17.7 15.6 12.4 71 2.9 S 15 22 8 12 1016.4 1016.3 0.0
21/08:30pm 18.1 14.9 11.9 67 3.4 S 20 30 11 16 1016.1 1016.0 0.0
21/08:00pm 18.7 15.5 12.0 65 3.7 S 20 32 11 17 1015.9 1015.8 0.0
21/07:30pm 19.2 16.1 11.7 62 4.1 SSE 19 26 10 14 1015.6 1015.5 0.0
21/07:00pm 19.9 16.7 11.1 57 4.8 S 19 24 10 13 1015.4 1015.3 0.0
21/06:30pm 20.7 17.8 11.1 54 5.3 S 17 22 9 12 1015.2 1015.1 0.0
21/06:00pm 20.8 17.6 10.0 50 5.8 S 17 24 9 13 1015.2 1015.1 0.0
21/05:30pm 20.9 17.5 9.2 47 6.2 SSE 17 22 9 12 1015.2 1015.1 0.0
21/05:00pm 21.0 18.0 10.5 51 5.7 SE 17 28 9 15 1015.4 1015.3 0.0
21/04:30pm 21.0 18.0 10.5 51 5.7 SE 17 24 9 13 1015.4 1015.3 0.0
21/04:00pm 21.2 18.2 10.7 51 5.7 E 17 24 9 13 1015.5 1015.4 0.0
21/03:30pm 20.4 16.9 10.2 52 5.5 ESE 19 24 10 13 1015.6 1015.5 0.0
21/03:00pm 20.8 17.3 10.9 53 5.4 SE 20 30 11 16 1015.6 1015.5 0.0
21/02:30pm 20.9 17.1 11.3 54 5.3 SE 22 30 12 16 1015.7 1015.6 0.0
21/02:00pm 20.5 17.6 10.9 54 5.2 SSE 17 26 9 14 1015.7 1015.6 0.0
21/01:30pm 20.3 17.8 11.2 56 5.0 SSE 15 28 8 15 1015.9 1015.8 0.0
21/01:00pm 19.6 16.4 11.1 58 4.6 S 19 24 10 13 1016.1 1016.0 0.0
21/12:30pm 19.2 17.1 11.0 59 4.5 SSW 13 20 7 11 1016.2 1016.1 0.0
21/12:00pm 18.7 15.9 11.3 62 4.0 SSW 17 24 9 13 1016.2 1016.1 0.0
21/11:30am 18.6 15.6 10.7 60 4.3 SSW 17 26 9 14 1016.0 1015.9 0.0
21/11:00am 17.7 15.8 10.6 63 3.8 SSW 11 20 6 11 1015.9 1015.8 0.0
21/10:30am 17.7 14.6 10.3 62 3.9 SSW 17 26 9 14 1015.8 1015.7 0.0
21/10:00am 18.0 14.5 10.1 60 4.2 S 19 24 10 13 1015.5 1015.4 0.0
21/09:30am 17.4 14.0 10.5 64 3.7 SSW 19 26 10 14 1015.4 1015.3 0.0
21/09:00am 16.5 13.3 9.9 65 3.5 WSW 17 22 9 12 1015.2 1015.1 0.2
21/08:30am 16.0 12.4 9.9 67 3.2 SW 19 26 10 14 1014.8 1014.7 0.2
21/08:00am 14.8 11.5 9.4 70 2.8 SW 17 22 9 12 1014.2 1014.1 0.2
21/07:30am 14.6 11.5 9.0 69 2.9 WSW 15 19 8 10 1013.7 1013.6 0.2
21/07:00am 14.8 12.0 8.7 67 3.1 WSW 13 15 7 8 1013.3 1013.2 0.2
21/06:30am 14.6 11.5 9.0 69 2.9 SW 15 20 8 11 1012.9 1012.8 0.2
21/06:00am 14.5 11.8 8.9 69 2.8 WSW 13 19 7 10 1012.6 1012.5 0.2
21/05:30am 14.4 11.7 9.0 70 2.7 W 13 17 7 9 1012.3 1012.2 0.2
21/05:00am 14.3 11.6 8.9 70 2.7 W 13 19 7 10 1011.8 1011.7 0.2
21/04:30am 14.3 11.6 9.1 71 2.6 WSW 13 17 7 9 1011.5 1011.5 0.2
21/04:00am 14.6 12.0 9.4 71 2.7 WSW 13 20 7 11 1011.2 1011.2 0.2
21/03:30am 15.0 11.9 8.9 67 3.1 SSW 15 19 8 10 1011.2 1011.2 0.2
21/03:00am 14.5 11.6 8.0 65 3.2 S 13 19 7 10 1011.1 1011.1 0.2
21/02:30am 14.9 9.8 7.7 62 3.6 SSW 24 32 13 17 1010.9 1010.9 0.2
21/02:00am 15.5 11.4 8.7 64 3.5 SSW 20 28 11 15 1010.6 1010.6 0.2
21/01:30am 15.7 10.3 8.0 60 3.9 SSW 26 35 14 19 1010.5 1010.5 0.2
21/01:00am 15.5 11.7 9.2 66 3.2 SSW 19 28 10 15 1010.3 1010.3 0.2
21/12:30am 15.6 10.9 7.9 60 3.9 SSW 22 30 12 16 1010.1 1010.1 0.2
21/12:00am 15.6 10.6 8.1 61 3.8 SSW 24 33 13 18 1010.0 1010.0 0.2
 
Date/Time
EDT
Temp
°C
App
Temp
°C
Dew
Point
°C
Rel
Hum
%
Delta-T
°C
Wind Press
QNH
hPa
Press
MSL
hPa
Rain since
9am
mm
Dir  Spd
km/h
Gust
km/h
Spd
kts
Gust
kts
20/11:30pm 15.5 10.9 8.3 62 3.6 SSW 22 32 12 17 1009.8 1009.8 0.2
20/11:00pm 15.5 11.0 8.5 63 3.6 SSW 22 30 12 16 1009.6 1009.6 0.2
20/10:30pm 15.7 11.5 9.8 68 3.1 SSW 22 35 12 19 1009.5 1009.5 0.2
20/10:00pm 16.0 11.7 9.2 64 3.5 SSW 22 32 12 17 1009.3 1009.3 0.2
20/09:30pm 16.1 10.1 8.8 62 3.7 SSW 30 43 16 23 1009.1 1009.1 0.2
20/09:00pm 16.3 10.7 8.8 61 3.9 SSW 28 43 15 23 1008.6 1008.6 0.2
20/08:30pm 16.4 10.1 8.9 61 3.9 SSW 32 46 17 25 1008.5 1008.5 0.2
20/08:00pm 16.9 10.8 10.5 66 3.4 SSW 33 43 18 23 1007.8 1007.8 0.2
20/07:30pm 17.1 9.9 10.5 65 3.5 S 39 54 21 29 1007.1 1007.1 0.2
20/07:10pm 17.6 11.5 10.5 63 3.8 SSW 33 52 18 28 1006.5 1006.5 0.2
20/07:00pm 17.6 10.7 10.2 62 3.9 SSW 37 54 20 29 1006.4 1006.4 0.2
20/06:31pm 18.1 10.6 9.5 57 4.5 SSW 39 59 21 32 1005.8 1005.8 0.2
20/06:30pm 18.3 11.3 9.9 58 4.5 SSW 37 52 20 28 1005.8 1005.8 0.2
20/06:00pm 18.8 12.4 10.6 59 4.4 SSW 35 54 19 29 1005.3 1005.3 0.2
20/05:32pm 19.0 11.3 10.3 57 4.7 SSW 41 59 22 32 1004.8 1004.8 0.2
20/05:30pm 18.8 10.8 10.4 58 4.5 SSW 43 59 23 32 1004.7 1004.7 0.2
20/05:00pm 19.2 11.3 11.5 61 4.2 SSW 44 59 24 32 1004.1 1004.1 0.2
20/04:30pm 19.4 10.9 11.9 62 4.2 SSW 48 67 26 36 1003.3 1003.3 0.2
20/04:11pm 20.3 12.8 12.0 59 4.6 SSW 43 61 23 33 1003.2 1003.2 0.2
20/04:00pm 19.9 11.8 11.9 60 4.5 SSW 46 63 25 34 1002.9 1002.9 0.2
20/03:30pm 20.7 14.0 12.4 59 4.7 SSW 39 57 21 31 1002.5 1002.5 0.2
20/03:00pm 20.7 13.2 12.1 58 4.8 SSW 43 65 23 35 1001.9 1001.9 0.2
20/02:52pm 20.8 14.4 12.0 57 4.9 SSW 37 56 20 30 1001.9 1001.9 0.2
20/02:30pm 20.0 14.5 12.5 62 4.2 SSW 33 50 18 27 1001.8 1001.8 0.2
20/02:29pm 20.0 14.6 12.3 61 4.3 SSW 32 50 17 27 1001.8 1001.8 0.2
20/02:00pm 19.7 14.0 11.2 58 4.7 SW 32 43 17 23 1001.4 1001.4 0.2
20/01:30pm 19.0 13.9 11.8 63 4.0 SW 30 44 16 24 1001.2 1001.2 0.2
20/01:12pm 19.0 14.4 12.3 65 3.7 SW 28 46 15 25 1001.0 1001.0 0.2
20/01:00pm 19.0 13.7 13.0 68 3.4 SW 33 46 18 25 1000.9 1000.9 0.2
20/12:30pm 18.9 13.4 12.6 67 3.5 WSW 33 46 18 25 1000.4 1000.4 0.2
20/12:14pm 18.8 13.7 13.0 69 3.3 WSW 32 50 17 27 1000.0 1000.0 0.2
20/12:00pm 18.7 13.8 13.6 72 2.9 WSW 32 46 17 25 999.6 999.6 0.2
20/11:30am 18.9 15.1 13.7 72 3.0 WSW 26 41 14 22 998.8 998.8 0.2
20/11:00am 17.9 14.7 14.2 79 2.1 WSW 24 35 13 19 997.9 997.9 0.2
20/10:30am 17.8 14.7 14.5 81 1.9 WSW 24 35 13 19 997.3 997.3 0.2
20/10:00am 17.7 14.4 15.1 85 1.5 W 26 39 14 21 996.8 996.8 0.2
20/09:31am 17.4 13.3 15.9 91 0.9 WSW 32 50 17 27 996.4 996.4 0.2
20/09:30am 17.5 13.2 16.0 91 0.9 WSW 33 50 18 27 996.4 996.4 0.2
20/09:23am 17.9 13.4 16.4 91 0.9 WSW 35 56 19 30 996.2 996.2 0.2
20/09:17am 17.9 15.4 17.1 95 0.5 WSW 26 56 14 30 996.1 996.1 0.2
20/09:08am 18.3 17.4 17.8 97 0.3 W 19 28 10 15 995.7 995.7 0.0
20/09:00am 17.8 16.8 17.6 99 0.1 SW 19 28 10 15 995.6 995.6 20.0
20/08:30am 17.5 17.5 17.3 99 0.1 NW 13 20 7 11 994.8 994.8 19.8
20/08:23am 17.4 17.0 17.2 99 0.1 NW 15 20 8 11 994.8 994.8 19.8
20/08:00am 17.4 16.5 16.8 96 0.4 NW 17 20 9 11 994.3 994.2 19.6
20/07:30am 17.2 15.4 15.4 89 1.1 NNW 19 35 10 19 993.0 992.9 19.2
20/07:00am 16.3 14.4 15.2 93 0.6 N 19 28 10 15 992.3 992.2 19.2
20/06:30am 15.8 12.9 15.0 95 0.5 NNE 24 35 13 19 992.3 992.2 19.2
20/06:00am 15.7 13.7 15.4 98 0.2 NNE 20 33 11 18 993.1 993.0 19.2
20/05:30am 15.8 13.9 15.8 100 0.0 NNE 20 28 11 15 994.2 994.1 19.0
20/05:11am 15.4 14.6 15.2 99 0.1 NNE 13 17 7 9 996.0 996.0 18.4
20/05:00am 15.6 15.7 15.4 99 0.1 NW 9 11 5 6 997.2 997.2 17.6
20/04:50am 15.6 16.0 15.4 99 0.1 WSW 7 13 4 7 997.8 997.8 16.6
20/04:48am 15.6 16.0 15.4 99 0.1 WSW 7 13 4 7 997.9 997.9 16.4
20/04:30am 15.8 14.8 15.6 99 0.1 WSW 15 22 8 12 998.2 998.2 15.8
20/04:09am 16.6 17.6 16.4 99 0.1 ESE 6 11 3 6 998.9 998.9 13.6
20/04:00am 16.6 18.8 16.4 99 0.1 CALM 0 9 0 5 998.8 998.8 12.6
20/03:30am 16.8 17.7 16.6 99 0.1 NW 7 11 4 6 1000.3 1000.3 8.6
20/03:17am 16.9 17.2 16.9 100 0.0 WNW 11 13 6 7 1000.6 1000.6 7.8
20/03:00am 17.1 17.4 17.1 100 0.0 W 11 17 6 9 1001.1 1001.1 7.4
20/02:30am 17.1 14.5 16.9 99 0.1 SW 26 39 14 21 1002.1 1002.1 3.6
20/02:03am 17.4 12.6 15.6 89 1.1 WSW 35 59 19 32 1001.6 1001.6 1.0
20/02:00am 17.5 12.8 14.8 84 1.6 WSW 33 54 18 29 1001.7 1001.7 0.4
20/01:59am 17.5 12.9 14.6 83 1.7 WSW 32 54 17 29 1001.6 1001.6 0.4
20/01:51am 17.7 14.9 14.4 81 1.9 WSW 22 33 12 18 1000.4 1000.4 0.2
20/01:30am 17.8 17.4 12.9 73 2.7 WNW 7 11 4 6 998.2 998.2 0.0
20/01:00am 17.5 17.0 12.8 74 2.6 NNW 7 9 4 5 997.4 997.4 0.0
20/12:30am 17.9 17.8 13.2 74 2.6 WNW 6 9 3 5 997.9 997.9 0.0
20/12:00am 18.0 17.3 13.3 74 2.7 W 9 11 5 6 999.0 999.0 0.0
 
Date/Time
EDT
Temp
°C
App
Temp
°C
Dew
Point
°C
Rel
Hum
%
Delta-T
°C
Wind Press
QNH
hPa
Press
MSL
hPa
Rain since
9am
mm
Dir  Spd
km/h
Gust
km/h
Spd
kts
Gust
kts
19/11:30pm 18.6 18.0 13.5 72 2.9 W 9 13 5 7 999.6 999.6 0.0
19/11:00pm 18.4 17.8 13.5 73 2.8 WNW 9 13 5 7 1000.1 1000.1 0.0
19/10:30pm 19.1 19.0 13.9 72 3.0 WSW 7 11 4 6 1000.8 1000.8 0.0
19/10:00pm 19.6 19.6 14.2 71 3.1 W 7 9 4 5 1001.9 1001.9 0.0
19/09:30pm 19.8 20.0 14.2 70 3.2 SW 6 7 3 4 1002.6 1002.6 0.0
19/09:00pm 20.0 20.2 14.1 69 3.4 S 6 11 3 6 1003.7 1003.7 0.0
19/08:30pm 20.1 19.7 14.2 69 3.4 S 9 11 5 6 1003.8 1003.8 0.0
19/08:00pm 20.1 18.4 13.6 66 3.7 S 15 20 8 11 1004.5 1004.5 0.0
19/07:30pm 20.1 17.6 13.6 66 3.7 S 19 26 10 14 1004.9 1004.9 0.0
19/07:00pm 21.0 18.1 12.9 60 4.6 S 20 26 11 14 1005.4 1005.4 0.0
19/06:30pm 21.1 18.1 12.0 56 5.1 S 19 28 10 15 1005.6 1005.6 0.0
19/06:00pm 21.6 18.9 11.6 53 5.6 SSE 17 24 9 13 1006.0 1006.0 0.0
19/05:30pm 22.5 19.2 10.9 48 6.4 S 19 24 10 13 1006.4 1006.4 0.0
19/05:00pm 22.3 19.1 9.8 45 6.8 SSE 17 20 9 11 1006.9 1006.9 0.0

Latest Capital City Observations: Canberra | Sydney | Melbourne | Brisbane | Adelaide | Perth | Hobart | Darwin

Other Formats:

Comma delimited format used in spreadsheet applications
http://www.bom.gov.au/fwo/IDV60901/IDV60901.94865.axf

JavaScript Object Notation format (JSON) in row-major order
http://www.bom.gov.au/fwo/IDV60901/IDV60901.94865.json